sensor_id;sensor_type;location;lat;lon;timestamp;temperature;humidity
2651;DHT22;1335;48.180;16.342;2022-10-01T00:02:04;12.50;99.90
2651;DHT22;1335;48.180;16.342;2022-10-01T00:04:35;13.20;99.90
2651;DHT22;1335;48.180;16.342;2022-10-01T00:07:03;13.00;99.90
2651;DHT22;1335;48.180;16.342;2022-10-01T00:09:35;13.10;99.90
2651;DHT22;1335;48.180;16.342;2022-10-01T00:12:07;12.80;99.90
2651;DHT22;1335;48.180;16.342;2022-10-01T00:14:35;12.90;99.90
2651;DHT22;1335;48.180;16.342;2022-10-01T00:17:06;12.40;99.90
2651;DHT22;1335;48.180;16.342;2022-10-01T00:19:34;12.80;99.90
2651;DHT22;1335;48.180;16.342;2022-10-01T00:22:03;12.90;99.90
2651;DHT22;1335;48.180;16.342;2022-10-01T00:24:31;13.10;99.90
2651;DHT22;1335;48.180;16.342;2022-10-01T00:26:58;12.90;99.90
2651;DHT22;1335;48.180;16.342;2022-10-01T00:29:26;12.90;99.90
2651;DHT22;1335;48.180;16.342;2022-10-01T00:31:54;13.00;99.90
2651;DHT22;1335;48.180;16.342;2022-10-01T00:34:25;12.40;99.90
2651;DHT22;1335;48.180;16.342;2022-10-01T00:36:53;13.00;99.90
2651;DHT22;1335;48.180;16.342;2022-10-01T00:39:23;12.80;99.90
2651;DHT22;1335;48.180;16.342;2022-10-01T00:41:50;13.20;99.90
2651;DHT22;1335;48.180;16.342;2022-10-01T00:44:30;13.00;99.90
2651;DHT22;1335;48.180;16.342;2022-10-01T00:47:03;13.10;99.90
2651;DHT22;1335;48.180;16.342;2022-10-01T00:49:34;13.00;99.90
2651;DHT22;1335;48.180;16.342;2022-10-01T00:52:06;13.10;99.90
2651;DHT22;1335;48.180;16.342;2022-10-01T00:54:38;13.20;99.90
2651;DHT22;1335;48.180;16.342;2022-10-01T00:57:09;13.00;99.90
2651;DHT22;1335;48.180;16.342;2022-10-01T00:59:40;12.90;99.90
2651;DHT22;1335;48.180;16.342;2022-10-01T01:02:09;13.20;99.90
2651;DHT22;1335;48.180;16.342;2022-10-01T01:04:40;13.30;99.90
2651;DHT22;1335;48.180;16.342;2022-10-01T01:07:08;13.30;99.90
2651;DHT22;1335;48.180;16.342;2022-10-01T01:09:39;13.10;99.90
2651;DHT22;1335;48.180;16.342;2022-10-01T01:12:18;13.20;99.90
2651;DHT22;1335;48.180;16.342;2022-10-01T01:14:54;13.70;99.90
2651;DHT22;1335;48.180;16.342;2022-10-01T01:17:31;13.10;99.90
2651;DHT22;1335;48.180;16.342;2022-10-01T01:20:17;13.30;99.90
2651;DHT22;1335;48.180;16.342;2022-10-01T01:22:54;13.70;99.90
2651;DHT22;1335;48.180;16.342;2022-10-01T01:25:31;13.80;99.90
2651;DHT22;1335;48.180;16.342;2022-10-01T01:28:10;13.70;99.90
2651;DHT22;1335;48.180;16.342;2022-10-01T01:30:39;13.40;99.90
2651;DHT22;1335;48.180;16.342;2022-10-01T01:33:13;13.30;99.90
2651;DHT22;1335;48.180;16.342;2022-10-01T01:35:45;13.90;99.90
2651;DHT22;1335;48.180;16.342;2022-10-01T01:38:17;13.60;99.90
2651;DHT22;1335;48.180;16.342;2022-10-01T01:40:47;13.90;99.90
2651;DHT22;1335;48.180;16.342;2022-10-01T01:43:22;13.90;99.90
2651;DHT22;1335;48.180;16.342;2022-10-01T01:45:52;13.10;99.90
2651;DHT22;1335;48.180;16.342;2022-10-01T01:48:22;13.70;99.90
2651;DHT22;1335;48.180;16.342;2022-10-01T01:50:55;13.70;99.90
2651;DHT22;1335;48.180;16.342;2022-10-01T01:53:24;13.70;99.90
2651;DHT22;1335;48.180;16.342;2022-10-01T01:55:52;13.90;99.90
2651;DHT22;1335;48.180;16.342;2022-10-01T01:58:23;13.90;99.90
2651;DHT22;1335;48.180;16.342;2022-10-01T02:00:51;13.80;99.90
2651;DHT22;1335;48.180;16.342;2022-10-01T02:03:20;13.30;99.90
2651;DHT22;1335;48.180;16.342;2022-10-01T02:05:54;13.60;99.90
2651;DHT22;1335;48.180;16.342;2022-10-01T02:08:33;13.50;99.90
2651;DHT22;1335;48.180;16.342;2022-10-01T02:11:22;13.70;99.90
2651;DHT22;1335;48.180;16.342;2022-10-01T02:14:09;13.90;99.90
2651;DHT22;1335;48.180;16.342;2022-10-01T02:16:45;13.50;99.90
2651;DHT22;1335;48.180;16.342;2022-10-01T02:19:20;13.30;99.90
2651;DHT22;1335;48.180;16.342;2022-10-01T02:21:56;13.70;99.90
2651;DHT22;1335;48.180;16.342;2022-10-01T02:24:33;14.00;99.90
2651;DHT22;1335;48.180;16.342;2022-10-01T02:27:11;13.60;99.90
2651;DHT22;1335;48.180;16.342;2022-10-01T02:29:46;13.50;99.90
2651;DHT22;1335;48.180;16.342;2022-10-01T02:32:20;13.50;99.90
2651;DHT22;1335;48.180;16.342;2022-10-01T02:34:56;13.80;99.90
2651;DHT22;1335;48.180;16.342;2022-10-01T02:37:32;13.50;99.90
2651;DHT22;1335;48.180;16.342;2022-10-01T02:40:04;14.00;99.90
2651;DHT22;1335;48.180;16.342;2022-10-01T02:42:39;13.80;99.90
2651;DHT22;1335;48.180;16.342;2022-10-01T02:45:19;13.40;99.90
2651;DHT22;1335;48.180;16.342;2022-10-01T02:47:54;13.50;99.90
2651;DHT22;1335;48.180;16.342;2022-10-01T02:50:33;13.70;99.90
2651;DHT22;1335;48.180;16.342;2022-10-01T02:53:15;13.60;99.90
2651;DHT22;1335;48.180;16.342;2022-10-01T02:55:48;13.40;99.90
2651;DHT22;1335;48.180;16.342;2022-10-01T02:58:21;13.60;99.90
2651;DHT22;1335;48.180;16.342;2022-10-01T03:00:58;13.50;99.90
2651;DHT22;1335;48.180;16.342;2022-10-01T03:03:42;13.20;99.90
2651;DHT22;1335;48.180;16.342;2022-10-01T03:06:15;13.80;99.90
2651;DHT22;1335;48.180;16.342;2022-10-01T03:08:44;14.30;99.90
2651;DHT22;1335;48.180;16.342;2022-10-01T03:11:15;13.70;99.90
2651;DHT22;1335;48.180;16.342;2022-10-01T03:13:53;13.70;99.90
2651;DHT22;1335;48.180;16.342;2022-10-01T03:16:35;13.80;99.90
2651;DHT22;1335;48.180;16.342;2022-10-01T03:19:05;13.80;99.90
2651;DHT22;1335;48.180;16.342;2022-10-01T03:21:33;13.60;99.90
2651;DHT22;1335;48.180;16.342;2022-10-01T03:24:03;13.60;99.90
2651;DHT22;1335;48.180;16.342;2022-10-01T03:26:32;13.80;99.90
2651;DHT22;1335;48.180;16.342;2022-10-01T03:28:59;13.20;99.90
2651;DHT22;1335;48.180;16.342;2022-10-01T03:31:27;13.90;99.90
2651;DHT22;1335;48.180;16.342;2022-10-01T03:33:57;14.20;99.90
2651;DHT22;1335;48.180;16.342;2022-10-01T03:36:26;13.10;99.90
2651;DHT22;1335;48.180;16.342;2022-10-01T03:38:54;13.70;99.90
2651;DHT22;1335;48.180;16.342;2022-10-01T03:41:22;13.50;99.90
2651;DHT22;1335;48.180;16.342;2022-10-01T03:43:55;13.40;99.90
2651;DHT22;1335;48.180;16.342;2022-10-01T03:46:23;13.40;99.90
2651;DHT22;1335;48.180;16.342;2022-10-01T03:48:55;13.50;99.90
2651;DHT22;1335;48.180;16.342;2022-10-01T03:51:26;13.10;99.90
2651;DHT22;1335;48.180;16.342;2022-10-01T03:53:53;13.50;99.90
2651;DHT22;1335;48.180;16.342;2022-10-01T03:56:22;13.80;99.90
2651;DHT22;1335;48.180;16.342;2022-10-01T03:58:50;13.80;99.90
2651;DHT22;1335;48.180;16.342;2022-10-01T04:01:18;13.50;99.90
2651;DHT22;1335;48.180;16.342;2022-10-01T04:03:46;13.50;99.90
2651;DHT22;1335;48.180;16.342;2022-10-01T04:06:16;13.50;99.90
2651;DHT22;1335;48.180;16.342;2022-10-01T04:08:45;13.40;99.90
2651;DHT22;1335;48.180;16.342;2022-10-01T04:11:14;13.40;99.90
2651;DHT22;1335;48.180;16.342;2022-10-01T04:13:41;13.00;99.90
2651;DHT22;1335;48.180;16.342;2022-10-01T04:16:10;14.00;99.90
2651;DHT22;1335;48.180;16.342;2022-10-01T04:18:39;13.40;99.90
2651;DHT22;1335;48.180;16.342;2022-10-01T04:21:07;13.40;99.90
2651;DHT22;1335;48.180;16.342;2022-10-01T04:23:42;13.70;99.90
2651;DHT22;1335;48.180;16.342;2022-10-01T04:26:10;13.50;99.90
2651;DHT22;1335;48.180;16.342;2022-10-01T04:28:45;13.50;99.90
2651;DHT22;1335;48.180;16.342;2022-10-01T04:31:16;13.70;99.90
2651;DHT22;1335;48.180;16.342;2022-10-01T04:33:59;13.50;99.90
2651;DHT22;1335;48.180;16.342;2022-10-01T04:36:27;13.60;99.90
2651;DHT22;1335;48.180;16.342;2022-10-01T04:38:57;13.60;99.90
2651;DHT22;1335;48.180;16.342;2022-10-01T04:41:25;13.80;99.90
2651;DHT22;1335;48.180;16.342;2022-10-01T04:44:01;13.30;99.90
2651;DHT22;1335;48.180;16.342;2022-10-01T04:46:30;13.90;99.90
2651;DHT22;1335;48.180;16.342;2022-10-01T04:48:59;13.50;99.90
2651;DHT22;1335;48.180;16.342;2022-10-01T04:51:26;12.80;99.90
2651;DHT22;1335;48.180;16.342;2022-10-01T04:53:55;13.60;99.90
2651;DHT22;1335;48.180;16.342;2022-10-01T04:56:24;13.10;99.90
2651;DHT22;1335;48.180;16.342;2022-10-01T04:58:51;13.60;99.90
2651;DHT22;1335;48.180;16.342;2022-10-01T05:01:18;13.80;99.90
2651;DHT22;1335;48.180;16.342;2022-10-01T05:03:46;13.30;99.90
2651;DHT22;1335;48.180;16.342;2022-10-01T05:06:14;12.80;99.90
2651;DHT22;1335;48.180;16.342;2022-10-01T05:08:42;13.30;99.90
2651;DHT22;1335;48.180;16.342;2022-10-01T05:11:15;13.50;99.90
2651;DHT22;1335;48.180;16.342;2022-10-01T05:13:43;13.30;99.90
2651;DHT22;1335;48.180;16.342;2022-10-01T05:16:10;13.40;99.90
2651;DHT22;1335;48.180;16.342;2022-10-01T05:18:38;13.40;99.90
2651;DHT22;1335;48.180;16.342;2022-10-01T05:21:07;13.70;99.90
2651;DHT22;1335;48.180;16.342;2022-10-01T05:23:36;13.30;99.90
2651;DHT22;1335;48.180;16.342;2022-10-01T05:26:04;13.50;99.90
2651;DHT22;1335;48.180;16.342;2022-10-01T05:28:34;14.00;99.90
2651;DHT22;1335;48.180;16.342;2022-10-01T05:31:09;13.60;99.90
2651;DHT22;1335;48.180;16.342;2022-10-01T05:33:41;13.60;99.90
2651;DHT22;1335;48.180;16.342;2022-10-01T05:36:10;14.20;99.90
2651;DHT22;1335;48.180;16.342;2022-10-01T05:38:38;13.10;99.90
2651;DHT22;1335;48.180;16.342;2022-10-01T05:41:07;13.50;99.90
2651;DHT22;1335;48.180;16.342;2022-10-01T05:43:36;13.50;99.90
2651;DHT22;1335;48.180;16.342;2022-10-01T05:46:05;13.70;99.90
2651;DHT22;1335;48.180;16.342;2022-10-01T05:48:35;13.50;99.90
2651;DHT22;1335;48.180;16.342;2022-10-01T05:51:04;13.80;99.90
2651;DHT22;1335;48.180;16.342;2022-10-01T05:53:34;13.60;99.90
2651;DHT22;1335;48.180;16.342;2022-10-01T05:56:04;14.30;99.90
2651;DHT22;1335;48.180;16.342;2022-10-01T05:58:59;14.00;99.90
2651;DHT22;1335;48.180;16.342;2022-10-01T06:01:27;13.80;99.90
2651;DHT22;1335;48.180;16.342;2022-10-01T06:03:57;14.20;99.90
2651;DHT22;1335;48.180;16.342;2022-10-01T06:06:26;13.70;99.90
2651;DHT22;1335;48.180;16.342;2022-10-01T06:08:54;13.80;99.90
2651;DHT22;1335;48.180;16.342;2022-10-01T06:11:28;13.70;99.90
2651;DHT22;1335;48.180;16.342;2022-10-01T06:14:00;13.90;99.90
2651;DHT22;1335;48.180;16.342;2022-10-01T06:16:28;14.20;99.90
2651;DHT22;1335;48.180;16.342;2022-10-01T06:18:56;14.10;99.90
2651;DHT22;1335;48.180;16.342;2022-10-01T06:21:24;14.70;99.90
2651;DHT22;1335;48.180;16.342;2022-10-01T06:23:53;14.50;99.90
2651;DHT22;1335;48.180;16.342;2022-10-01T06:26:21;14.30;99.90
2651;DHT22;1335;48.180;16.342;2022-10-01T06:28:51;14.70;99.90
2651;DHT22;1335;48.180;16.342;2022-10-01T06:31:21;14.40;99.90
2651;DHT22;1335;48.180;16.342;2022-10-01T06:33:57;14.40;99.90
2651;DHT22;1335;48.180;16.342;2022-10-01T06:36:27;14.00;99.90
2651;DHT22;1335;48.180;16.342;2022-10-01T06:38:55;14.20;99.90
2651;DHT22;1335;48.180;16.342;2022-10-01T06:41:22;14.40;99.90
2651;DHT22;1335;48.180;16.342;2022-10-01T06:43:50;14.60;99.90
2651;DHT22;1335;48.180;16.342;2022-10-01T06:46:27;14.20;99.90
2651;DHT22;1335;48.180;16.342;2022-10-01T06:48:58;14.30;99.90
2651;DHT22;1335;48.180;16.342;2022-10-01T06:51:26;14.40;99.90
2651;DHT22;1335;48.180;16.342;2022-10-01T06:54:07;14.50;99.90
2651;DHT22;1335;48.180;16.342;2022-10-01T06:56:49;14.60;99.90
2651;DHT22;1335;48.180;16.342;2022-10-01T06:59:17;14.70;99.90
2651;DHT22;1335;48.180;16.342;2022-10-01T07:01:53;14.70;99.90
2651;DHT22;1335;48.180;16.342;2022-10-01T07:04:26;15.00;99.90
2651;DHT22;1335;48.180;16.342;2022-10-01T07:07:13;14.90;99.90
2651;DHT22;1335;48.180;16.342;2022-10-01T07:09:52;15.60;99.90
2651;DHT22;1335;48.180;16.342;2022-10-01T07:12:34;15.90;99.90
2651;DHT22;1335;48.180;16.342;2022-10-01T07:15:18;16.30;99.90
2651;DHT22;1335;48.180;16.342;2022-10-01T07:18:07;16.20;99.90
2651;DHT22;1335;48.180;16.342;2022-10-01T07:20:36;15.70;99.90
2651;DHT22;1335;48.180;16.342;2022-10-01T07:23:11;16.50;99.90
2651;DHT22;1335;48.180;16.342;2022-10-01T07:25:40;16.20;99.90
2651;DHT22;1335;48.180;16.342;2022-10-01T07:28:21;16.30;99.90
2651;DHT22;1335;48.180;16.342;2022-10-01T07:31:04;15.90;99.90
2651;DHT22;1335;48.180;16.342;2022-10-01T07:33:58;16.50;99.90
2651;DHT22;1335;48.180;16.342;2022-10-01T07:36:27;16.10;99.90
2651;DHT22;1335;48.180;16.342;2022-10-01T07:39:10;15.90;99.90
2651;DHT22;1335;48.180;16.342;2022-10-01T07:41:41;16.50;99.90
2651;DHT22;1335;48.180;16.342;2022-10-01T07:44:15;17.10;99.90
2651;DHT22;1335;48.180;16.342;2022-10-01T07:47:14;16.10;99.90
2651;DHT22;1335;48.180;16.342;2022-10-01T07:49:44;15.50;99.90
2651;DHT22;1335;48.180;16.342;2022-10-01T07:52:12;16.80;99.90
2651;DHT22;1335;48.180;16.342;2022-10-01T07:54:42;16.80;99.90
2651;DHT22;1335;48.180;16.342;2022-10-01T07:57:10;16.90;99.90
2651;DHT22;1335;48.180;16.342;2022-10-01T07:59:52;17.10;99.90
2651;DHT22;1335;48.180;16.342;2022-10-01T08:02:33;17.60;99.90
2651;DHT22;1335;48.180;16.342;2022-10-01T08:05:05;17.30;99.90
2651;DHT22;1335;48.180;16.342;2022-10-01T08:07:49;17.60;99.90
2651;DHT22;1335;48.180;16.342;2022-10-01T08:10:21;17.90;99.90
2651;DHT22;1335;48.180;16.342;2022-10-01T08:12:59;18.00;99.90
2651;DHT22;1335;48.180;16.342;2022-10-01T08:15:42;17.80;99.90
2651;DHT22;1335;48.180;16.342;2022-10-01T08:18:12;17.90;99.90
2651;DHT22;1335;48.180;16.342;2022-10-01T08:24:09;17.70;99.90
2651;DHT22;1335;48.180;16.342;2022-10-01T08:26:39;17.80;99.90
2651;DHT22;1335;48.180;16.342;2022-10-01T08:29:07;17.80;99.90
2651;DHT22;1335;48.180;16.342;2022-10-01T08:31:44;18.20;99.90
2651;DHT22;1335;48.180;16.342;2022-10-01T08:34:21;17.30;99.90
2651;DHT22;1335;48.180;16.342;2022-10-01T08:37:02;17.40;99.90
2651;DHT22;1335;48.180;16.342;2022-10-01T08:39:32;16.60;99.90
2651;DHT22;1335;48.180;16.342;2022-10-01T08:42:04;16.80;99.90
2651;DHT22;1335;48.180;16.342;2022-10-01T08:44:44;17.40;99.90
2651;DHT22;1335;48.180;16.342;2022-10-01T08:47:19;17.70;99.90
2651;DHT22;1335;48.180;16.342;2022-10-01T08:50:07;16.90;99.90
2651;DHT22;1335;48.180;16.342;2022-10-01T08:52:57;17.10;99.90
2651;DHT22;1335;48.180;16.342;2022-10-01T08:55:36;16.80;99.90
2651;DHT22;1335;48.180;16.342;2022-10-01T08:58:06;17.50;99.90
2651;DHT22;1335;48.180;16.342;2022-10-01T09:00:52;17.40;99.90
2651;DHT22;1335;48.180;16.342;2022-10-01T09:03:21;17.30;99.90
2651;DHT22;1335;48.180;16.342;2022-10-01T09:06:04;17.10;99.90
2651;DHT22;1335;48.180;16.342;2022-10-01T09:08:46;16.90;99.90
2651;DHT22;1335;48.180;16.342;2022-10-01T09:11:41;17.30;99.90
2651;DHT22;1335;48.180;16.342;2022-10-01T09:14:36;17.50;99.90
2651;DHT22;1335;48.180;16.342;2022-10-01T09:17:15;17.30;99.90
2651;DHT22;1335;48.180;16.342;2022-10-01T09:20:00;17.20;99.90
2651;DHT22;1335;48.180;16.342;2022-10-01T09:22:38;18.00;99.90
2651;DHT22;1335;48.180;16.342;2022-10-01T09:25:12;17.20;99.90
2651;DHT22;1335;48.180;16.342;2022-10-01T09:27:44;17.50;99.90
2651;DHT22;1335;48.180;16.342;2022-10-01T09:30:15;17.80;99.90
2651;DHT22;1335;48.180;16.342;2022-10-01T09:32:48;17.90;99.90
2651;DHT22;1335;48.180;16.342;2022-10-01T09:35:36;17.60;99.90
2651;DHT22;1335;48.180;16.342;2022-10-01T09:38:12;17.60;99.90
2651;DHT22;1335;48.180;16.342;2022-10-01T09:40:50;17.50;99.90
2651;DHT22;1335;48.180;16.342;2022-10-01T09:43:22;18.00;99.90
2651;DHT22;1335;48.180;16.342;2022-10-01T09:45:51;17.70;99.90
2651;DHT22;1335;48.180;16.342;2022-10-01T09:48:25;18.10;99.90
2651;DHT22;1335;48.180;16.342;2022-10-01T09:50:56;17.80;99.90
2651;DHT22;1335;48.180;16.342;2022-10-01T09:53:33;17.10;99.90
2651;DHT22;1335;48.180;16.342;2022-10-01T09:56:12;17.30;99.90
2651;DHT22;1335;48.180;16.342;2022-10-01T09:58:55;17.70;99.90
2651;DHT22;1335;48.180;16.342;2022-10-01T10:01:39;17.90;99.90
2651;DHT22;1335;48.180;16.342;2022-10-01T10:04:18;18.00;99.90
2651;DHT22;1335;48.180;16.342;2022-10-01T10:06:49;17.40;99.90
2651;DHT22;1335;48.180;16.342;2022-10-01T10:09:21;17.30;99.90
2651;DHT22;1335;48.180;16.342;2022-10-01T10:11:54;17.70;99.90
2651;DHT22;1335;48.180;16.342;2022-10-01T10:14:29;17.50;99.90
2651;DHT22;1335;48.180;16.342;2022-10-01T10:17:03;17.60;99.90
2651;DHT22;1335;48.180;16.342;2022-10-01T10:19:32;18.20;99.90
2651;DHT22;1335;48.180;16.342;2022-10-01T10:22:12;17.60;99.90
2651;DHT22;1335;48.180;16.342;2022-10-01T10:24:50;17.80;99.90
2651;DHT22;1335;48.180;16.342;2022-10-01T10:27:22;18.20;99.90
2651;DHT22;1335;48.180;16.342;2022-10-01T10:30:03;18.30;99.90
2651;DHT22;1335;48.180;16.342;2022-10-01T10:32:36;18.50;99.90
2651;DHT22;1335;48.180;16.342;2022-10-01T10:35:07;19.10;99.90
2651;DHT22;1335;48.180;16.342;2022-10-01T10:37:44;20.80;99.90
2651;DHT22;1335;48.180;16.342;2022-10-01T10:40:16;19.90;99.90
2651;DHT22;1335;48.180;16.342;2022-10-01T10:42:52;20.30;99.90
2651;DHT22;1335;48.180;16.342;2022-10-01T10:45:27;20.30;99.90
2651;DHT22;1335;48.180;16.342;2022-10-01T10:47:57;19.10;99.90
2651;DHT22;1335;48.180;16.342;2022-10-01T10:50:31;19.20;99.90
2651;DHT22;1335;48.180;16.342;2022-10-01T10:53:02;19.90;99.90
2651;DHT22;1335;48.180;16.342;2022-10-01T10:55:37;19.70;99.90
2651;DHT22;1335;48.180;16.342;2022-10-01T10:58:11;19.50;99.90
2651;DHT22;1335;48.180;16.342;2022-10-01T11:00:54;19.60;99.90
2651;DHT22;1335;48.180;16.342;2022-10-01T11:03:27;18.80;99.90
2651;DHT22;1335;48.180;16.342;2022-10-01T11:06:01;19.00;99.90
2651;DHT22;1335;48.180;16.342;2022-10-01T11:08:38;19.80;99.90
2651;DHT22;1335;48.180;16.342;2022-10-01T11:11:17;18.10;99.90
2651;DHT22;1335;48.180;16.342;2022-10-01T11:14:12;18.10;99.90
2651;DHT22;1335;48.180;16.342;2022-10-01T11:17:02;17.90;99.90
2651;DHT22;1335;48.180;16.342;2022-10-01T11:19:45;18.90;99.90
2651;DHT22;1335;48.180;16.342;2022-10-01T11:22:38;18.80;99.90
2651;DHT22;1335;48.180;16.342;2022-10-01T11:25:30;19.00;99.90
2651;DHT22;1335;48.180;16.342;2022-10-01T11:28:30;19.10;99.90
2651;DHT22;1335;48.180;16.342;2022-10-01T11:31:17;19.90;99.90
2651;DHT22;1335;48.180;16.342;2022-10-01T11:34:02;19.50;99.90
2651;DHT22;1335;48.180;16.342;2022-10-01T11:36:49;17.60;99.90
2651;DHT22;1335;48.180;16.342;2022-10-01T11:39:23;18.70;99.90
2651;DHT22;1335;48.180;16.342;2022-10-01T11:41:59;19.00;99.90
2651;DHT22;1335;48.180;16.342;2022-10-01T11:44:45;19.40;99.90
2651;DHT22;1335;48.180;16.342;2022-10-01T11:47:34;18.00;99.90
2651;DHT22;1335;48.180;16.342;2022-10-01T11:50:22;19.00;99.90
2651;DHT22;1335;48.180;16.342;2022-10-01T11:52:57;18.90;99.90
2651;DHT22;1335;48.180;16.342;2022-10-01T11:55:31;19.30;99.90
2651;DHT22;1335;48.180;16.342;2022-10-01T11:58:26;18.30;99.90
2651;DHT22;1335;48.180;16.342;2022-10-01T12:01:15;17.80;99.90
2651;DHT22;1335;48.180;16.342;2022-10-01T12:04:04;18.10;99.90
2651;DHT22;1335;48.180;16.342;2022-10-01T12:06:39;18.80;99.90
2651;DHT22;1335;48.180;16.342;2022-10-01T12:09:15;18.10;99.90
2651;DHT22;1335;48.180;16.342;2022-10-01T12:11:59;19.10;99.90
2651;DHT22;1335;48.180;16.342;2022-10-01T12:14:48;17.60;99.90
2651;DHT22;1335;48.180;16.342;2022-10-01T12:17:40;18.50;99.90
2651;DHT22;1335;48.180;16.342;2022-10-01T12:20:19;17.90;99.90
2651;DHT22;1335;48.180;16.342;2022-10-01T12:23:15;18.30;99.90
2651;DHT22;1335;48.180;16.342;2022-10-01T12:26:04;19.10;99.90
2651;DHT22;1335;48.180;16.342;2022-10-01T12:28:53;19.80;99.90
2651;DHT22;1335;48.180;16.342;2022-10-01T12:31:42;19.30;99.90
2651;DHT22;1335;48.180;16.342;2022-10-01T12:34:38;18.90;99.90
2651;DHT22;1335;48.180;16.342;2022-10-01T12:37:36;19.40;99.90
2651;DHT22;1335;48.180;16.342;2022-10-01T12:40:33;18.30;99.90
2651;DHT22;1335;48.180;16.342;2022-10-01T12:43:28;19.80;99.90
2651;DHT22;1335;48.180;16.342;2022-10-01T12:46:22;19.00;99.90
2651;DHT22;1335;48.180;16.342;2022-10-01T12:49:14;18.80;99.90
2651;DHT22;1335;48.180;16.342;2022-10-01T12:52:06;17.70;99.90
2651;DHT22;1335;48.180;16.342;2022-10-01T12:55:04;18.30;99.90
2651;DHT22;1335;48.180;16.342;2022-10-01T12:57:52;18.50;99.90
2651;DHT22;1335;48.180;16.342;2022-10-01T13:00:44;19.20;99.90
2651;DHT22;1335;48.180;16.342;2022-10-01T13:03:49;19.20;99.90
2651;DHT22;1335;48.180;16.342;2022-10-01T13:06:38;19.70;99.90
2651;DHT22;1335;48.180;16.342;2022-10-01T13:09:13;19.70;99.90
2651;DHT22;1335;48.180;16.342;2022-10-01T13:12:25;19.90;99.90
2651;DHT22;1335;48.180;16.342;2022-10-01T13:18:18;20.20;99.90
2651;DHT22;1335;48.180;16.342;2022-10-01T13:20:55;20.00;99.90
2651;DHT22;1335;48.180;16.342;2022-10-01T13:23:43;19.60;99.90
2651;DHT22;1335;48.180;16.342;2022-10-01T13:26:38;20.60;99.90
2651;DHT22;1335;48.180;16.342;2022-10-01T13:29:29;19.10;99.90
2651;DHT22;1335;48.180;16.342;2022-10-01T13:32:28;19.20;99.90
2651;DHT22;1335;48.180;16.342;2022-10-01T13:38:28;19.10;99.90
2651;DHT22;1335;48.180;16.342;2022-10-01T13:41:20;19.40;99.90
2651;DHT22;1335;48.180;16.342;2022-10-01T13:44:18;19.30;99.90
2651;DHT22;1335;48.180;16.342;2022-10-01T13:47:05;18.70;99.90
2651;DHT22;1335;48.180;16.342;2022-10-01T13:50:17;19.20;99.90
2651;DHT22;1335;48.180;16.342;2022-10-01T13:59:30;19.30;99.90
2651;DHT22;1335;48.180;16.342;2022-10-01T14:02:29;18.60;99.90
2651;DHT22;1335;48.180;16.342;2022-10-01T14:05:36;18.50;99.90
2651;DHT22;1335;48.180;16.342;2022-10-01T14:08:15;18.40;99.90
2651;DHT22;1335;48.180;16.342;2022-10-01T14:10:51;18.40;99.90
2651;DHT22;1335;48.180;16.342;2022-10-01T14:13:46;18.40;99.90
2651;DHT22;1335;48.180;16.342;2022-10-01T14:16:40;18.30;99.90
2651;DHT22;1335;48.180;16.342;2022-10-01T14:19:18;18.60;99.90
2651;DHT22;1335;48.180;16.342;2022-10-01T14:22:03;18.00;99.90
2651;DHT22;1335;48.180;16.342;2022-10-01T14:28:14;17.60;99.90
2651;DHT22;1335;48.180;16.342;2022-10-01T14:31:10;17.40;99.90
2651;DHT22;1335;48.180;16.342;2022-10-01T14:34:11;17.60;99.90
2651;DHT22;1335;48.180;16.342;2022-10-01T14:36:50;17.40;99.90
2651;DHT22;1335;48.180;16.342;2022-10-01T14:39:24;17.80;99.90
2651;DHT22;1335;48.180;16.342;2022-10-01T14:41:54;17.50;99.90
2651;DHT22;1335;48.180;16.342;2022-10-01T14:44:40;17.20;99.90
2651;DHT22;1335;48.180;16.342;2022-10-01T14:47:13;17.00;99.90
2651;DHT22;1335;48.180;16.342;2022-10-01T14:53:32;16.80;99.90
2651;DHT22;1335;48.180;16.342;2022-10-01T14:56:14;16.60;99.90
2651;DHT22;1335;48.180;16.342;2022-10-01T14:59:04;17.70;99.90
2651;DHT22;1335;48.180;16.342;2022-10-01T15:01:33;16.70;99.90
2651;DHT22;1335;48.180;16.342;2022-10-01T15:04:23;16.80;99.90
2651;DHT22;1335;48.180;16.342;2022-10-01T15:07:11;17.00;99.90
2651;DHT22;1335;48.180;16.342;2022-10-01T15:13:11;16.40;99.90
2651;DHT22;1335;48.180;16.342;2022-10-01T15:15:58;16.80;99.90
2651;DHT22;1335;48.180;16.342;2022-10-01T15:18:29;16.90;99.90
2651;DHT22;1335;48.180;16.342;2022-10-01T15:21:04;16.50;99.90
2651;DHT22;1335;48.180;16.342;2022-10-01T15:23:53;16.80;99.90
2651;DHT22;1335;48.180;16.342;2022-10-01T15:26:37;16.10;99.90
2651;DHT22;1335;48.180;16.342;2022-10-01T15:32:54;16.80;99.90
2651;DHT22;1335;48.180;16.342;2022-10-01T15:35:42;16.60;99.90
2651;DHT22;1335;48.180;16.342;2022-10-01T15:38:26;15.90;99.90
2651;DHT22;1335;48.180;16.342;2022-10-01T15:41:01;16.20;99.90
2651;DHT22;1335;48.180;16.342;2022-10-01T15:43:34;16.40;99.90
2651;DHT22;1335;48.180;16.342;2022-10-01T15:46:17;16.20;99.90
2651;DHT22;1335;48.180;16.342;2022-10-01T15:52:00;16.20;99.90
2651;DHT22;1335;48.180;16.342;2022-10-01T15:54:46;16.20;99.90
2651;DHT22;1335;48.180;16.342;2022-10-01T15:57:31;16.10;99.90
2651;DHT22;1335;48.180;16.342;2022-10-01T16:00:04;15.70;99.90
2651;DHT22;1335;48.180;16.342;2022-10-01T16:02:49;16.50;99.90
2651;DHT22;1335;48.180;16.342;2022-10-01T16:05:49;16.10;99.90
2651;DHT22;1335;48.180;16.342;2022-10-01T16:08:36;15.90;99.90
2651;DHT22;1335;48.180;16.342;2022-10-01T16:11:18;15.50;99.90
2651;DHT22;1335;48.180;16.342;2022-10-01T16:14:12;15.70;99.90
2651;DHT22;1335;48.180;16.342;2022-10-01T16:17:31;16.10;99.90
2651;DHT22;1335;48.180;16.342;2022-10-01T16:20:33;16.00;99.90
2651;DHT22;1335;48.180;16.342;2022-10-01T16:29:56;15.70;99.90
2651;DHT22;1335;48.180;16.342;2022-10-01T16:32:26;15.20;99.90
2651;DHT22;1335;48.180;16.342;2022-10-01T16:35:19;15.30;99.90
2651;DHT22;1335;48.180;16.342;2022-10-01T16:38:02;15.10;99.90
2651;DHT22;1335;48.180;16.342;2022-10-01T16:40:39;16.10;99.90
2651;DHT22;1335;48.180;16.342;2022-10-01T16:43:13;15.30;99.90
2651;DHT22;1335;48.180;16.342;2022-10-01T16:46:15;15.40;99.90
2651;DHT22;1335;48.180;16.342;2022-10-01T16:48:58;15.00;99.90
2651;DHT22;1335;48.180;16.342;2022-10-01T16:51:29;15.90;99.90
2651;DHT22;1335;48.180;16.342;2022-10-01T16:54:00;15.30;99.90
2651;DHT22;1335;48.180;16.342;2022-10-01T16:56:40;15.40;99.90
2651;DHT22;1335;48.180;16.342;2022-10-01T16:59:13;15.00;99.90
2651;DHT22;1335;48.180;16.342;2022-10-01T17:02:15;15.30;99.90
2651;DHT22;1335;48.180;16.342;2022-10-01T17:05:00;15.00;99.90
2651;DHT22;1335;48.180;16.342;2022-10-01T17:07:27;15.50;99.90
2651;DHT22;1335;48.180;16.342;2022-10-01T17:10:10;14.70;99.90
2651;DHT22;1335;48.180;16.342;2022-10-01T17:12:39;15.00;99.90
2651;DHT22;1335;48.180;16.342;2022-10-01T17:15:19;15.00;99.90
2651;DHT22;1335;48.180;16.342;2022-10-01T17:30:37;14.40;99.90
2651;DHT22;1335;48.180;16.342;2022-10-01T17:33:30;15.10;99.90
2651;DHT22;1335;48.180;16.342;2022-10-01T17:36:14;14.80;99.90
2651;DHT22;1335;48.180;16.342;2022-10-01T17:39:26;14.70;99.90
2651;DHT22;1335;48.180;16.342;2022-10-01T17:42:15;14.90;99.90
2651;DHT22;1335;48.180;16.342;2022-10-01T17:44:47;14.40;99.90